createdAt,value
2018-01-19T00:02:28.376Z,2.39
2018-01-19T00:04:56.710Z,2.58
2018-01-19T00:07:25.261Z,2.69
2018-01-19T00:09:53.587Z,2.56
2018-01-19T00:12:21.911Z,2.70
2018-01-19T00:14:50.258Z,2.84
2018-01-19T00:17:18.607Z,2.93
2018-01-19T00:19:46.934Z,2.83
2018-01-19T00:22:15.258Z,2.86
2018-01-19T00:24:44.359Z,2.74
2018-01-19T00:27:12.682Z,2.77
2018-01-19T00:29:41.019Z,2.63
2018-01-19T00:32:10.572Z,2.59
2018-01-19T00:34:38.895Z,2.69
2018-01-19T00:37:07.226Z,2.82
2018-01-19T00:39:35.580Z,3.02
2018-01-19T00:42:03.923Z,2.99
2018-01-19T00:44:33.243Z,3.11
2018-01-19T00:47:01.575Z,3.11
2018-01-19T00:49:29.922Z,3.21
2018-01-19T00:51:58.252Z,3.22
2018-01-19T00:54:27.389Z,3.31
2018-01-19T00:56:55.730Z,3.10
2018-01-19T00:59:24.055Z,3.02
2018-01-19T01:01:52.416Z,2.98
2018-01-19T01:04:20.726Z,3.05
2018-01-19T01:06:49.068Z,2.94
2018-01-19T01:09:17.412Z,2.69
2018-01-19T01:11:46.523Z,2.66
2018-01-19T01:14:14.857Z,2.85
2018-01-19T01:16:43.950Z,3.00
2018-01-19T01:19:12.296Z,3.20
2018-01-19T01:21:40.630Z,3.14
2018-01-19T01:24:09.757Z,3.18
2018-01-19T01:26:38.081Z,3.29
2018-01-19T01:29:07.374Z,3.35
2018-01-19T01:31:35.719Z,3.41
2018-01-19T01:34:04.038Z,3.49
2018-01-19T01:36:32.369Z,3.63
2018-01-19T01:39:00.705Z,3.32
2018-01-19T01:41:29.074Z,3.41
2018-01-19T01:43:57.441Z,3.44
2018-01-19T01:46:25.758Z,3.41
2018-01-19T01:49:12.080Z,3.52
2018-01-19T01:51:40.462Z,3.53
2018-01-19T01:54:08.790Z,3.63
2018-01-19T01:56:37.114Z,3.70
2018-01-19T01:59:05.435Z,3.77
2018-01-19T02:01:33.766Z,3.80
2018-01-19T02:04:02.099Z,3.85
2018-01-19T02:06:30.429Z,3.96
2018-01-19T02:08:58.759Z,3.85
2018-01-19T02:11:27.092Z,3.96
2018-01-19T02:13:55.442Z,3.90
2018-01-19T02:16:23.789Z,3.98
2018-01-19T02:18:52.124Z,4.00
2018-01-19T02:21:20.484Z,4.07
2018-01-19T02:23:48.833Z,3.98
2018-01-19T02:26:17.943Z,3.99
2018-01-19T02:28:46.283Z,4.01
2018-01-19T02:31:14.633Z,4.01
2018-01-19T02:33:42.984Z,4.03
2018-01-19T02:36:11.318Z,3.94
2018-01-19T02:38:39.690Z,3.92
2018-01-19T02:41:08.448Z,3.91
2018-01-19T02:43:36.776Z,3.59
2018-01-19T02:46:05.880Z,3.47
2018-01-19T02:48:34.214Z,3.60
2018-01-19T02:51:02.531Z,3.49
2018-01-19T02:53:31.633Z,3.40
2018-01-19T02:55:59.975Z,3.53
2018-01-19T02:58:28.316Z,3.33
2018-01-19T03:00:56.640Z,3.41
2018-01-19T03:03:24.972Z,3.28
2018-01-19T03:05:54.066Z,3.20
2018-01-19T03:08:22.377Z,3.26
2018-01-19T03:10:51.980Z,3.07
2018-01-19T03:13:20.329Z,3.21
2018-01-19T03:15:48.678Z,3.13
2018-01-19T03:18:17.028Z,3.13
2018-01-19T03:20:45.379Z,3.13
2018-01-19T03:23:13.718Z,2.97
2018-01-19T03:25:42.049Z,2.95
2018-01-19T03:28:10.420Z,3.06
2018-01-19T03:30:38.810Z,3.10
2018-01-19T03:33:08.284Z,3.12
2018-01-19T03:35:36.606Z,3.25
2018-01-19T03:38:04.939Z,3.33
2018-01-19T03:40:33.280Z,3.27
2018-01-19T03:43:01.610Z,3.42
2018-01-19T03:45:29.983Z,3.45
2018-01-19T03:47:58.314Z,3.38
2018-01-19T03:50:27.400Z,3.56
2018-01-19T03:52:56.490Z,3.51
2018-01-19T03:55:24.817Z,3.43
2018-01-19T03:57:53.153Z,3.47
2018-01-19T04:00:22.245Z,3.46
2018-01-19T04:02:50.600Z,3.41
2018-01-19T04:05:18.944Z,3.40
2018-01-19T04:07:48.005Z,3.47
2018-01-19T04:10:16.330Z,3.23
2018-01-19T04:12:44.709Z,3.09
2018-01-19T04:15:13.062Z,2.76
2018-01-19T04:17:41.412Z,2.91
2018-01-19T04:20:09.744Z,2.97
2018-01-19T04:22:38.075Z,3.07
2018-01-19T04:25:07.176Z,3.01
2018-01-19T04:27:35.499Z,2.83
2018-01-19T04:30:03.820Z,3.05
2018-01-19T04:32:32.924Z,3.09
2018-01-19T04:35:01.238Z,3.17
2018-01-19T04:37:29.580Z,2.81
2018-01-19T04:40:03.892Z,3.08
2018-01-19T04:42:32.246Z,3.05
2018-01-19T04:45:00.572Z,3.21
2018-01-19T04:47:28.904Z,3.11
2018-01-19T04:49:57.219Z,3.19
2018-01-19T04:52:25.537Z,3.14
2018-01-19T04:54:54.060Z,3.06
2018-01-19T04:57:23.926Z,2.91
2018-01-19T04:59:52.265Z,2.92
2018-01-19T05:02:20.804Z,2.87
2018-01-19T05:04:49.144Z,2.82
2018-01-19T05:07:17.457Z,2.94
2018-01-19T05:09:45.778Z,2.80
2018-01-19T05:12:14.627Z,2.87
2018-01-19T05:14:42.968Z,2.76
2018-01-19T05:17:11.300Z,2.81
2018-01-19T05:19:40.404Z,2.67
2018-01-19T05:22:08.731Z,2.59
2018-01-19T05:24:37.846Z,2.77
2018-01-19T05:27:06.166Z,2.72
2018-01-19T05:29:34.512Z,2.65
2018-01-19T05:32:02.861Z,2.62
2018-01-19T05:34:31.169Z,2.84
2018-01-19T05:36:59.500Z,2.93
2018-01-19T05:39:27.828Z,3.11
2018-01-19T05:41:56.919Z,3.32
2018-01-19T05:44:26.067Z,3.12
2018-01-19T05:46:54.386Z,3.26
2018-01-19T05:49:22.749Z,3.22
2018-01-19T05:51:51.070Z,3.34
2018-01-19T05:54:19.417Z,3.29
2018-01-19T05:56:47.739Z,3.19
2018-01-19T05:59:16.075Z,3.41
2018-01-19T06:01:45.179Z,3.34
2018-01-19T06:04:14.940Z,3.26
2018-01-19T06:06:43.357Z,2.94
2018-01-19T06:09:11.685Z,3.02
2018-01-19T06:11:40.018Z,3.02
2018-01-19T06:14:08.377Z,3.13
2018-01-19T06:16:36.694Z,3.07
2018-01-19T06:19:06.746Z,2.98
2018-01-19T06:21:35.077Z,3.20
2018-01-19T06:24:03.406Z,3.04
2018-01-19T06:26:31.696Z,3.13
2018-01-19T06:29:00.028Z,3.11
2018-01-19T06:31:28.372Z,3.17
2018-01-19T06:33:56.695Z,3.26
2018-01-19T06:36:25.033Z,3.17
2018-01-19T06:38:53.382Z,3.03
2018-01-19T06:41:21.723Z,3.10
2018-01-19T06:43:50.077Z,2.98
2018-01-19T06:46:19.172Z,3.14
2018-01-19T06:48:47.516Z,3.09
2018-01-19T06:51:16.975Z,3.19
2018-01-19T06:53:45.307Z,3.13
2018-01-19T06:56:13.677Z,3.19
2018-01-19T06:58:42.022Z,3.27
2018-01-19T07:01:10.365Z,3.28
2018-01-19T07:03:38.716Z,3.32
2018-01-19T07:06:07.056Z,3.20
2018-01-19T07:08:35.374Z,3.23
2018-01-19T07:11:03.703Z,3.16
2018-01-19T07:13:32.031Z,3.23
2018-01-19T07:16:00.356Z,2.97
2018-01-19T07:18:28.673Z,3.21
2018-01-19T07:20:57.021Z,3.10
2018-01-19T07:23:25.353Z,3.11
2018-01-19T07:25:54.442Z,2.91
2018-01-19T07:28:22.779Z,2.92
2018-01-19T07:30:51.114Z,2.85
2018-01-19T07:33:20.250Z,3.02
2018-01-19T07:35:48.571Z,3.10
2018-01-19T07:38:16.922Z,3.09
2018-01-19T07:40:45.247Z,3.08
2018-01-19T07:43:14.365Z,3.34
2018-01-19T07:45:42.707Z,3.27
2018-01-19T07:48:11.053Z,3.40
2018-01-19T07:50:39.371Z,3.44
2018-01-19T07:53:08.532Z,3.45
2018-01-19T07:55:36.873Z,3.48
2018-01-19T07:58:05.210Z,3.39
2018-01-19T08:00:34.325Z,3.34
2018-01-19T08:03:02.661Z,3.39
2018-01-19T08:05:31.026Z,3.47
2018-01-19T08:07:59.554Z,3.59
2018-01-19T08:10:28.638Z,3.46
2018-01-19T08:12:56.970Z,3.42
2018-01-19T08:15:25.278Z,3.35
2018-01-19T08:17:53.614Z,3.28
2018-01-19T08:20:21.938Z,3.24
2018-01-19T08:22:50.278Z,3.43
2018-01-19T08:25:18.602Z,3.44
2018-01-19T08:27:48.659Z,3.50
2018-01-19T08:30:16.990Z,3.34
2018-01-19T08:32:45.335Z,3.43
2018-01-19T08:35:13.676Z,3.48
2018-01-19T08:37:42.009Z,3.51
2018-01-19T08:40:10.356Z,3.50
2018-01-19T08:42:38.682Z,3.30
2018-01-19T08:45:07.801Z,3.38
2018-01-19T08:47:36.132Z,3.37
2018-01-19T08:50:04.450Z,3.45
2018-01-19T08:52:33.547Z,3.45
2018-01-19T08:55:01.867Z,3.35
2018-01-19T08:57:32.200Z,3.36
2018-01-19T09:00:00.532Z,3.39
2018-01-19T09:02:28.861Z,3.47
2018-01-19T09:04:57.226Z,3.62
2018-01-19T09:07:25.541Z,3.46
2018-01-19T09:09:54.840Z,3.49
2018-01-19T09:12:23.162Z,3.30
2018-01-19T09:14:51.502Z,3.35
2018-01-19T09:17:19.822Z,3.31
2018-01-19T09:19:48.214Z,2.98
2018-01-19T09:22:16.544Z,3.23
2018-01-19T09:24:44.875Z,3.29
2018-01-19T09:27:14.077Z,3.39
2018-01-19T09:29:42.454Z,3.31
2018-01-19T09:32:10.789Z,3.52
2018-01-19T09:34:39.129Z,3.56
2018-01-19T09:37:07.446Z,3.68
2018-01-19T09:39:35.761Z,3.80
2018-01-19T09:42:04.101Z,3.93
2018-01-19T09:44:32.426Z,3.78
2018-01-19T09:47:00.769Z,3.71
2018-01-19T09:49:29.110Z,3.88
2018-01-19T09:51:57.442Z,3.82
2018-01-19T09:54:25.777Z,3.77
2018-01-19T09:56:54.109Z,3.86
2018-01-19T09:59:22.461Z,3.96
2018-01-19T10:01:50.810Z,4.07
2018-01-19T10:04:19.913Z,4.22
2018-01-19T10:06:48.315Z,4.32
2018-01-19T10:09:16.656Z,4.31
2018-01-19T10:11:44.982Z,4.35
2018-01-19T10:14:13.317Z,4.35
2018-01-19T10:16:42.416Z,4.33
2018-01-19T10:19:10.756Z,4.48
2018-01-19T10:21:39.090Z,4.80
2018-01-19T10:24:07.416Z,4.45
2018-01-19T10:26:35.748Z,4.40
2018-01-19T10:29:04.100Z,4.44
2018-01-19T10:31:32.433Z,4.57
2018-01-19T10:34:00.784Z,4.73
2018-01-19T10:36:29.125Z,4.76
2018-01-19T10:38:57.465Z,4.92
2018-01-19T10:41:25.786Z,4.86
2018-01-19T10:43:54.888Z,4.82
2018-01-19T10:46:23.221Z,4.62
2018-01-19T10:48:51.551Z,4.67
2018-01-19T10:51:19.884Z,4.67
2018-01-19T10:53:48.218Z,4.69
2018-01-19T10:56:16.553Z,4.66
2018-01-19T10:58:44.899Z,4.65
2018-01-19T11:01:13.234Z,4.67
2018-01-19T11:03:41.548Z,4.70
2018-01-19T11:06:09.866Z,4.67
2018-01-19T11:08:38.963Z,4.54
2018-01-19T11:11:07.284Z,4.28
2018-01-19T11:13:35.606Z,4.17
2018-01-19T11:16:03.930Z,3.92
2018-01-19T11:18:32.327Z,3.63
2018-01-19T11:21:00.652Z,4.00
2018-01-19T11:23:29.000Z,4.13
2018-01-19T11:25:57.327Z,4.14
2018-01-19T11:28:25.673Z,4.28
2018-01-19T11:30:54.020Z,4.37
2018-01-19T11:33:22.356Z,4.26
2018-01-19T11:35:50.671Z,4.32
2018-01-19T11:38:19.010Z,4.44
2018-01-19T11:40:48.447Z,4.37
2018-01-19T11:43:16.813Z,4.44
2018-01-19T11:45:45.139Z,4.41
2018-01-19T11:48:13.843Z,4.43
2018-01-19T11:50:42.944Z,4.50
2018-01-19T11:53:11.266Z,4.28
2018-01-19T11:55:39.589Z,4.41
2018-01-19T11:58:08.666Z,4.38
2018-01-19T12:00:36.989Z,4.65
2018-01-19T12:03:05.336Z,4.71
2018-01-19T12:05:34.438Z,4.78
2018-01-19T12:08:03.530Z,4.87
2018-01-19T12:10:31.859Z,5.04
2018-01-19T12:13:00.237Z,4.83
2018-01-19T12:15:28.688Z,4.83
2018-01-19T12:17:57.032Z,4.99
2018-01-19T12:20:25.364Z,4.70
2018-01-19T12:22:53.680Z,4.76
2018-01-19T12:25:21.994Z,4.65
2018-01-19T12:27:50.337Z,4.57
2018-01-19T12:30:18.650Z,4.31
2018-01-19T12:32:47.230Z,4.14
2018-01-19T12:35:15.578Z,4.22
2018-01-19T12:37:43.900Z,4.35
2018-01-19T12:40:12.222Z,4.36
2018-01-19T12:42:40.555Z,4.43
2018-01-19T12:45:08.878Z,4.40
2018-01-19T12:47:37.205Z,4.03
2018-01-19T12:50:05.527Z,4.06
2018-01-19T12:52:33.866Z,4.31
2018-01-19T12:55:02.193Z,4.31
2018-01-19T12:57:30.520Z,4.22
2018-01-19T12:59:58.855Z,4.23
2018-01-19T13:02:27.175Z,4.34
2018-01-19T13:04:55.633Z,4.30
2018-01-19T13:07:23.954Z,4.32
2018-01-19T13:09:52.308Z,4.26
2018-01-19T13:12:20.644Z,4.37
2018-01-19T13:14:48.967Z,4.21
2018-01-19T13:17:17.282Z,4.34
2018-01-19T13:19:45.630Z,4.28
2018-01-19T13:22:13.966Z,4.27
2018-01-19T13:24:42.312Z,4.41
2018-01-19T13:27:11.580Z,4.30
2018-01-19T13:29:39.912Z,4.45
2018-01-19T13:32:08.255Z,4.93
2018-01-19T13:34:36.609Z,5.20
2018-01-19T13:37:04.939Z,5.66
2018-01-19T13:39:34.040Z,5.67
2018-01-19T13:42:02.378Z,5.91
2018-01-19T13:44:30.716Z,5.80
2018-01-19T13:46:59.049Z,5.54
2018-01-19T13:49:27.393Z,5.24
2018-01-19T13:51:56.521Z,5.29
2018-01-19T13:54:24.872Z,5.11
2018-01-19T13:56:53.204Z,4.78
2018-01-19T13:59:22.304Z,4.96
2018-01-19T14:01:50.621Z,4.80
2018-01-19T14:04:18.961Z,4.69
2018-01-19T14:06:48.100Z,4.08
2018-01-19T14:09:16.390Z,3.89
2018-01-19T14:11:51.312Z,3.71
2018-01-19T14:14:19.647Z,3.36
2018-01-19T14:16:47.971Z,3.39
2018-01-19T14:19:16.298Z,3.05
2018-01-19T14:21:45.396Z,3.22
2018-01-19T14:24:13.741Z,3.07
2018-01-19T14:26:42.702Z,3.08
2018-01-19T14:29:11.022Z,3.30
2018-01-19T14:31:40.389Z,3.65
2018-01-19T14:34:08.763Z,3.80
2018-01-19T14:36:37.076Z,3.99
2018-01-19T14:39:06.242Z,3.95
2018-01-19T14:41:34.562Z,3.95
2018-01-19T14:44:02.893Z,3.90
2018-01-19T14:46:31.251Z,3.89
2018-01-19T14:49:00.328Z,3.81
2018-01-19T14:51:28.658Z,3.88
2018-01-19T14:53:57.016Z,3.88
2018-01-19T14:56:25.740Z,3.99
2018-01-19T14:58:54.076Z,3.83
2018-01-19T15:01:22.418Z,3.89
2018-01-19T15:03:51.540Z,3.94
2018-01-19T15:06:19.876Z,3.69
2018-01-19T15:08:48.222Z,3.94
2018-01-19T15:11:16.560Z,3.91
2018-01-19T15:13:44.879Z,4.05
2018-01-19T15:16:13.202Z,4.05
2018-01-19T15:18:42.289Z,3.73
2018-01-19T15:21:11.399Z,2.97
2018-01-19T15:23:39.722Z,3.28
2018-01-19T15:26:08.037Z,3.38
2018-01-19T15:28:38.628Z,3.61
2018-01-19T15:31:06.943Z,3.35
2018-01-19T15:33:36.047Z,3.20
2018-01-19T15:36:04.358Z,3.09
2018-01-19T15:38:32.787Z,2.90
2018-01-19T15:41:01.134Z,2.72
2018-01-19T15:43:29.477Z,2.96
2018-01-19T15:45:57.804Z,3.06
2018-01-19T15:48:26.122Z,2.65
2018-01-19T15:50:54.428Z,2.97
2018-01-19T15:53:22.773Z,3.11
2018-01-19T15:55:51.084Z,3.17
2018-01-19T15:58:19.398Z,3.03
2018-01-19T16:00:47.753Z,3.07
2018-01-19T16:03:16.562Z,3.14
2018-01-19T16:05:44.887Z,2.96
2018-01-19T16:08:13.245Z,3.16
2018-01-19T16:10:42.370Z,3.27
2018-01-19T16:13:10.720Z,3.15
2018-01-19T16:15:39.048Z,3.34
2018-01-19T16:18:07.380Z,3.15
2018-01-19T16:20:36.479Z,3.16
2018-01-19T16:23:04.872Z,3.19
2018-01-19T16:25:33.225Z,3.24
2018-01-19T16:28:01.563Z,3.09
2018-01-19T16:30:29.894Z,3.16
2018-01-19T16:32:58.559Z,3.23
2018-01-19T16:35:27.661Z,3.00
2018-01-19T16:37:56.015Z,3.00
2018-01-19T16:40:24.414Z,3.16
2018-01-19T16:42:52.776Z,3.23
2018-01-19T16:45:21.106Z,3.25
2018-01-19T16:47:49.430Z,3.35
2018-01-19T16:50:17.816Z,3.35
2018-01-19T16:52:47.462Z,3.27
2018-01-19T16:55:16.329Z,3.13
2018-01-19T16:57:45.326Z,3.13
2018-01-19T17:00:13.735Z,2.97
2018-01-19T17:02:42.130Z,2.73
2018-01-19T17:05:10.463Z,2.89
2018-01-19T17:07:38.819Z,2.73
2018-01-19T17:10:07.181Z,2.86
2018-01-19T17:12:35.517Z,2.92
2018-01-19T17:15:04.030Z,3.03
2018-01-19T17:17:32.405Z,2.91
2018-01-19T17:20:00.766Z,3.03
2018-01-19T17:22:29.413Z,3.12
2018-01-19T17:24:57.828Z,3.08
2018-01-19T17:27:26.419Z,3.03
2018-01-19T17:29:54.830Z,2.90
2018-01-19T17:32:23.269Z,2.91
2018-01-19T17:34:51.625Z,2.89
2018-01-19T17:37:20.603Z,2.77
2018-01-19T17:39:49.078Z,2.75
2018-01-19T17:42:17.548Z,2.66
2018-01-19T17:44:46.770Z,2.78
2018-01-19T17:47:16.219Z,2.87
2018-01-19T17:49:44.650Z,2.85
2018-01-19T17:52:14.529Z,2.61
2018-01-19T17:54:42.983Z,2.73
2018-01-19T17:57:11.578Z,2.61
2018-01-19T17:59:40.335Z,2.61
2018-01-19T18:02:09.200Z,2.73
2018-01-19T18:04:38.633Z,2.75
2018-01-19T18:07:07.325Z,2.79
2018-01-19T18:09:36.194Z,2.83
2018-01-19T18:12:05.215Z,2.87
2018-01-19T18:14:34.862Z,2.81
2018-01-19T18:17:04.570Z,2.78
2018-01-19T18:19:34.128Z,2.67
2018-01-19T18:22:03.840Z,2.66
2018-01-19T18:24:33.797Z,2.60
2018-01-19T18:27:04.293Z,2.57
2018-01-19T18:29:34.118Z,2.40
2018-01-19T18:32:03.927Z,2.13
2018-01-19T18:34:33.761Z,1.99
2018-01-19T18:37:03.532Z,1.91
2018-01-19T18:39:33.365Z,1.96
2018-01-19T18:42:03.161Z,2.01
2018-01-19T18:44:33.017Z,2.12
2018-01-19T18:47:02.883Z,2.02
2018-01-19T18:49:37.945Z,2.11
2018-01-19T18:52:07.800Z,2.19
2018-01-19T18:54:38.427Z,2.27
2018-01-19T18:57:08.351Z,2.29
2018-01-19T18:59:39.042Z,2.32
2018-01-19T19:02:08.845Z,2.33
2018-01-19T19:04:38.856Z,2.26
2018-01-19T19:07:08.645Z,2.23
2018-01-19T19:09:39.356Z,2.15
2018-01-19T19:12:09.408Z,2.17
2018-01-19T19:14:39.302Z,2.22
2018-01-19T19:17:09.900Z,2.26
2018-01-19T19:19:39.856Z,2.30
2018-01-19T19:22:10.537Z,2.26
2018-01-19T19:24:40.459Z,2.17
2018-01-19T19:27:10.592Z,2.22
2018-01-19T19:29:40.535Z,2.20
2018-01-19T19:32:10.549Z,2.19
2018-01-19T19:34:42.150Z,2.08
2018-01-19T19:37:12.055Z,2.23
2018-01-19T19:39:41.861Z,2.29
2018-01-19T19:42:12.169Z,2.37
2018-01-19T19:44:42.073Z,2.20
2018-01-19T19:47:13.133Z,2.36
2018-01-19T19:49:43.176Z,2.43
2018-01-19T19:52:13.967Z,2.44
2018-01-19T19:54:45.002Z,2.44
2018-01-19T19:57:15.666Z,2.07
2018-01-19T19:59:45.510Z,2.23
2018-01-19T20:02:15.424Z,2.31
2018-01-19T20:04:45.234Z,2.34
2018-01-19T20:07:15.490Z,2.27
2018-01-19T20:09:47.110Z,2.40
2018-01-19T20:12:17.062Z,2.21
2018-01-19T20:14:47.979Z,2.36
2018-01-19T20:17:17.882Z,2.12
2018-01-19T20:19:47.865Z,2.21
2018-01-19T20:22:17.890Z,2.32
2018-01-19T20:24:47.867Z,2.46
2018-01-19T20:27:18.319Z,2.54
2018-01-19T20:29:48.206Z,2.65
2018-01-19T20:32:18.893Z,2.66
2018-01-19T20:34:48.715Z,2.70
2018-01-19T20:37:18.606Z,2.55
2018-01-19T20:39:48.504Z,2.77
2018-01-19T20:42:18.971Z,2.92
2018-01-19T20:44:48.865Z,2.99
2018-01-19T20:47:19.504Z,3.04
2018-01-19T20:49:49.436Z,3.06
2018-01-19T20:52:19.268Z,2.99
2018-01-19T20:54:49.261Z,2.93
2018-01-19T20:57:19.222Z,2.93
2018-01-19T20:59:49.211Z,2.94
2018-01-19T21:02:19.068Z,2.83
2018-01-19T21:04:48.921Z,2.76
2018-01-19T21:07:19.200Z,2.75
2018-01-19T21:09:49.089Z,2.77
2018-01-19T21:12:18.982Z,2.88
2018-01-19T21:14:48.811Z,2.64
2018-01-19T21:17:19.431Z,2.62
2018-01-19T21:19:49.287Z,2.54
2018-01-19T21:22:19.275Z,2.39
2018-01-19T21:24:49.175Z,2.38
2018-01-19T21:27:19.142Z,2.22
2018-01-19T21:29:49.094Z,2.35
2018-01-19T21:32:18.945Z,2.46
2018-01-19T21:34:51.643Z,2.48
2018-01-19T21:37:21.514Z,2.42
2018-01-19T21:39:51.439Z,2.22
2018-01-19T21:42:21.318Z,2.20
2018-01-19T21:44:51.187Z,2.28
2018-01-19T21:47:21.085Z,2.31
2018-01-19T21:49:50.987Z,2.42
2018-01-19T21:52:20.856Z,2.46
2018-01-19T21:54:50.695Z,2.46
2018-01-19T21:57:20.818Z,2.50
2018-01-19T21:59:50.800Z,2.56
2018-01-19T22:02:20.713Z,2.37
2018-01-19T22:04:50.513Z,2.44
2018-01-19T22:07:20.471Z,2.53
2018-01-19T22:09:50.184Z,2.54
2018-01-19T22:12:20.088Z,2.46
2018-01-19T22:14:50.109Z,2.34
2018-01-19T22:17:20.048Z,2.37
2018-01-19T22:19:50.037Z,2.25
2018-01-19T22:22:19.936Z,2.14
2018-01-19T22:24:49.780Z,2.16
2018-01-19T22:27:19.558Z,2.27
2018-01-19T22:29:49.366Z,2.34
2018-01-19T22:32:19.173Z,2.17
2018-01-19T22:34:48.950Z,2.05
2018-01-19T22:37:18.774Z,2.07
2018-01-19T22:39:48.397Z,2.11
2018-01-19T22:42:18.131Z,2.26
2018-01-19T22:44:47.992Z,2.44
2018-01-19T22:47:17.517Z,2.26
2018-01-19T22:49:46.034Z,2.33
2018-01-19T22:52:14.447Z,2.32
2018-01-19T22:54:42.836Z,2.26
2018-01-19T22:57:11.183Z,2.49
2018-01-19T22:59:39.551Z,2.43
2018-01-19T23:02:07.877Z,2.51
2018-01-19T23:04:36.241Z,2.59
2018-01-19T23:07:05.480Z,2.56
2018-01-19T23:09:33.853Z,2.54
2018-01-19T23:12:02.171Z,2.56
2018-01-19T23:14:31.270Z,2.53
2018-01-19T23:16:59.633Z,2.60
2018-01-19T23:19:27.949Z,2.61
2018-01-19T23:21:57.018Z,2.58
2018-01-19T23:24:25.326Z,2.56
2018-01-19T23:26:53.627Z,2.49
2018-01-19T23:29:21.935Z,2.51
2018-01-19T23:31:50.232Z,2.51
2018-01-19T23:34:18.546Z,2.47
2018-01-19T23:36:47.475Z,2.13
2018-01-19T23:39:15.818Z,1.95
2018-01-19T23:41:44.140Z,2.10
2018-01-19T23:44:12.470Z,2.00
2018-01-19T23:46:41.851Z,1.89
2018-01-19T23:49:10.169Z,1.86
2018-01-19T23:51:38.501Z,1.84
2018-01-19T23:54:06.831Z,1.89
2018-01-19T23:56:35.157Z,1.91
2018-01-19T23:59:04.254Z,1.94
